createdAt,value
2023-04-30T00:01:35.885Z,11.60
2023-04-30T00:04:04.723Z,9.00
2023-04-30T00:06:33.692Z,9.20
2023-04-30T00:09:00.559Z,7.90
2023-04-30T00:11:30.207Z,8.10
2023-04-30T00:13:58.271Z,8.10
2023-04-30T00:16:25.742Z,8.50
2023-04-30T00:18:53.209Z,8.30
2023-04-30T00:21:21.981Z,7.50
2023-04-30T00:23:51.804Z,7.50
2023-04-30T00:26:19.619Z,8.00
2023-04-30T00:28:48.248Z,9.50
2023-04-30T00:31:16.931Z,12.00
2023-04-30T00:33:45.570Z,8.90
2023-04-30T00:36:12.852Z,7.60
2023-04-30T00:38:40.495Z,10.60
2023-04-30T00:41:07.798Z,9.90
2023-04-30T00:43:35.120Z,8.40
2023-04-30T00:46:04.918Z,7.90
2023-04-30T00:48:32.606Z,7.70
2023-04-30T00:51:00.775Z,9.80
2023-04-30T00:53:30.658Z,8.80
2023-04-30T00:55:58.722Z,8.90
2023-04-30T00:58:26.382Z,9.80
2023-04-30T01:00:54.547Z,6.70
2023-04-30T01:03:22.742Z,10.00
2023-04-30T01:05:49.774Z,10.30
2023-04-30T01:08:16.978Z,8.80
2023-04-30T01:10:53.842Z,8.30
2023-04-30T01:13:26.974Z,9.50
2023-04-30T01:16:19.711Z,9.30
2023-04-30T01:19:03.124Z,7.40
2023-04-30T01:21:30.495Z,8.30
2023-04-30T01:24:06.626Z,8.30
2023-04-30T01:27:04.797Z,7.70
2023-04-30T01:29:32.514Z,8.90
2023-04-30T01:31:59.536Z,6.80
2023-04-30T01:34:26.385Z,8.30
2023-04-30T01:37:08.800Z,6.80
2023-04-30T01:40:08.188Z,8.20
2023-04-30T01:42:41.632Z,8.00
2023-04-30T01:45:21.123Z,8.90
2023-04-30T01:47:48.175Z,7.90
2023-04-30T01:50:15.260Z,8.30
2023-04-30T01:52:58.479Z,8.70
2023-04-30T01:55:37.703Z,6.60
2023-04-30T01:58:07.431Z,9.30
2023-04-30T02:00:34.649Z,9.50
2023-04-30T02:03:01.771Z,7.40
2023-04-30T02:05:30.702Z,10.60
2023-04-30T02:07:57.867Z,7.40
2023-04-30T02:10:26.285Z,7.30
2023-04-30T02:12:53.693Z,9.50
2023-04-30T02:15:22.696Z,7.10
2023-04-30T02:17:49.834Z,6.90
2023-04-30T02:20:16.931Z,8.80
2023-04-30T02:22:45.474Z,6.30
2023-04-30T02:25:12.292Z,7.30
2023-04-30T02:27:39.373Z,7.20
2023-04-30T02:30:06.648Z,6.50
2023-04-30T02:32:33.786Z,6.20
2023-04-30T02:35:01.138Z,6.10
2023-04-30T02:37:28.084Z,6.10
2023-04-30T02:39:55.101Z,8.40
2023-04-30T02:42:22.764Z,7.30
2023-04-30T02:44:49.604Z,6.60
2023-04-30T02:47:19.449Z,7.00
2023-04-30T02:49:46.268Z,8.40
2023-04-30T02:52:13.177Z,6.30
2023-04-30T02:54:40.044Z,5.50
2023-04-30T02:57:07.737Z,6.10
2023-04-30T02:59:36.058Z,5.80
2023-04-30T03:02:05.324Z,7.60
2023-04-30T03:04:32.147Z,8.10
2023-04-30T03:07:00.121Z,6.70
2023-04-30T03:09:26.929Z,6.80
2023-04-30T03:11:53.812Z,5.10
2023-04-30T03:14:20.998Z,5.70
2023-04-30T03:16:48.716Z,5.40
2023-04-30T03:19:21.694Z,5.60
2023-04-30T03:21:49.326Z,5.00
2023-04-30T03:24:19.570Z,3.80
2023-04-30T03:26:47.720Z,5.20
2023-04-30T03:29:15.211Z,9.20
2023-04-30T03:31:43.771Z,5.60
2023-04-30T03:34:11.225Z,5.70
2023-04-30T03:36:41.689Z,5.20
2023-04-30T03:39:09.596Z,6.40
2023-04-30T03:41:36.886Z,5.00
2023-04-30T03:44:06.975Z,6.60
2023-04-30T03:46:34.191Z,5.50
2023-04-30T03:49:01.666Z,5.70
2023-04-30T03:51:32.505Z,4.60
2023-04-30T03:54:05.914Z,5.40
2023-04-30T03:56:37.132Z,5.80
2023-04-30T03:59:07.401Z,4.80
2023-04-30T04:01:51.193Z,5.30
2023-04-30T04:04:20.522Z,5.00
2023-04-30T04:06:48.905Z,4.70
2023-04-30T04:09:15.904Z,5.60
2023-04-30T04:11:42.902Z,6.20
2023-04-30T04:14:10.076Z,5.70
2023-04-30T04:16:37.243Z,3.90
2023-04-30T04:19:04.120Z,4.00
2023-04-30T04:21:33.382Z,4.50
2023-04-30T04:24:08.064Z,6.90
2023-04-30T04:26:39.205Z,7.60
2023-04-30T04:29:15.249Z,9.30
2023-04-30T04:31:44.461Z,6.40
2023-04-30T04:37:37.478Z,5.00
2023-04-30T04:40:13.417Z,5.50
2023-04-30T04:42:42.232Z,5.00
2023-04-30T04:45:10.726Z,5.30
2023-04-30T04:47:39.943Z,5.50
2023-04-30T04:50:11.601Z,4.10
2023-04-30T04:52:43.859Z,5.50
2023-04-30T04:55:11.765Z,4.30
2023-04-30T04:57:42.099Z,5.20
2023-04-30T05:00:11.749Z,3.60
2023-04-30T05:02:39.801Z,5.00
2023-04-30T05:05:10.864Z,4.80
2023-04-30T05:07:37.915Z,4.00
2023-04-30T05:10:07.641Z,5.00
2023-04-30T05:12:36.382Z,5.60
2023-04-30T05:15:14.666Z,3.50
2023-04-30T05:17:43.063Z,5.60
2023-04-30T05:20:11.325Z,4.40
2023-04-30T05:22:40.272Z,4.70
2023-04-30T05:25:16.743Z,4.40
2023-04-30T05:28:01.181Z,4.60
2023-04-30T05:30:45.107Z,3.90
2023-04-30T05:33:28.670Z,4.40
2023-04-30T05:38:23.060Z,5.00
2023-04-30T05:40:50.420Z,5.00
2023-04-30T05:43:17.489Z,5.20
2023-04-30T05:45:46.945Z,4.30
2023-04-30T05:48:14.381Z,4.10
2023-04-30T05:50:42.227Z,4.00
2023-04-30T05:53:09.079Z,4.10
2023-04-30T05:55:46.124Z,4.80
2023-04-30T05:58:13.395Z,3.20
2023-04-30T06:00:41.689Z,4.50
2023-04-30T06:03:18.582Z,4.60
2023-04-30T06:05:50.284Z,3.50
2023-04-30T06:08:23.096Z,3.90
2023-04-30T06:10:50.292Z,4.50
2023-04-30T06:13:18.804Z,3.10
2023-04-30T06:15:49.693Z,4.80
2023-04-30T06:18:21.142Z,3.90
2023-04-30T06:20:57.159Z,4.10
2023-04-30T06:23:31.482Z,4.00
2023-04-30T06:26:00.451Z,3.60
2023-04-30T06:28:40.293Z,3.50
2023-04-30T06:31:10.688Z,7.60
2023-04-30T06:33:42.230Z,3.40
2023-04-30T06:36:09.450Z,3.60
2023-04-30T06:38:39.057Z,3.40
2023-04-30T06:41:26.069Z,2.80
2023-04-30T06:44:06.179Z,3.90
2023-04-30T06:46:35.520Z,4.30
2023-04-30T06:49:05.522Z,7.10
2023-04-30T06:51:34.100Z,3.90
2023-04-30T06:54:01.451Z,3.50
2023-04-30T06:56:28.360Z,3.90
2023-04-30T06:58:59.250Z,4.80
2023-04-30T07:01:29.348Z,4.40
2023-04-30T07:03:59.847Z,3.80
2023-04-30T07:06:33.785Z,2.60
2023-04-30T07:09:09.236Z,3.80
2023-04-30T07:11:36.157Z,3.40
2023-04-30T07:14:04.452Z,2.60
2023-04-30T07:16:31.785Z,3.50
2023-04-30T07:18:59.647Z,2.50
2023-04-30T07:21:28.174Z,4.20
2023-04-30T07:24:01.110Z,2.30
2023-04-30T07:26:52.416Z,3.50
2023-04-30T07:29:21.106Z,3.60
2023-04-30T07:31:48.619Z,4.30
2023-04-30T07:34:25.101Z,2.10
2023-04-30T07:36:56.590Z,2.90
2023-04-30T07:39:30.855Z,2.50
2023-04-30T07:41:57.878Z,3.60
2023-04-30T07:44:25.213Z,2.70
2023-04-30T07:46:53.493Z,3.50
2023-04-30T07:49:21.083Z,2.70
2023-04-30T07:51:53.305Z,2.20
2023-04-30T07:54:22.284Z,2.40
2023-04-30T07:56:50.790Z,2.90
2023-04-30T07:59:18.292Z,2.60
2023-04-30T08:01:45.289Z,3.00
2023-04-30T08:04:12.578Z,3.70
2023-04-30T08:06:39.691Z,2.80
2023-04-30T08:09:07.150Z,4.10
2023-04-30T08:11:36.883Z,2.90
2023-04-30T08:14:06.949Z,3.70
2023-04-30T08:16:34.071Z,2.30
2023-04-30T08:19:01.151Z,2.40
2023-04-30T08:21:39.789Z,3.90
2023-04-30T08:24:07.669Z,2.70
2023-04-30T08:26:37.407Z,3.90
2023-04-30T08:29:04.625Z,3.00
2023-04-30T08:31:31.910Z,4.40
2023-04-30T08:34:02.942Z,2.40
2023-04-30T08:36:33.763Z,3.30
2023-04-30T08:39:01.919Z,3.70
2023-04-30T08:41:35.568Z,3.90
2023-04-30T08:44:14.104Z,3.80
2023-04-30T08:46:41.217Z,3.10
2023-04-30T08:49:10.762Z,2.90
2023-04-30T08:51:40.148Z,2.30
2023-04-30T08:54:11.813Z,2.40
2023-04-30T08:56:41.119Z,4.00
2023-04-30T08:59:13.683Z,4.10
2023-04-30T09:02:03.632Z,2.50
2023-04-30T09:04:32.101Z,4.60
2023-04-30T09:07:00.509Z,4.00
2023-04-30T09:09:39.149Z,2.70
2023-04-30T09:12:19.594Z,3.60
2023-04-30T09:15:06.570Z,2.50
2023-04-30T09:17:35.394Z,2.40
2023-04-30T09:20:12.593Z,2.50
2023-04-30T09:22:41.565Z,2.90
2023-04-30T09:25:14.929Z,2.60
2023-04-30T09:27:42.378Z,1.90
2023-04-30T09:30:09.733Z,2.70
2023-04-30T09:33:02.137Z,4.20
2023-04-30T09:35:47.410Z,4.10
2023-04-30T09:38:27.528Z,1.90
2023-04-30T09:40:54.397Z,2.60
2023-04-30T09:43:23.685Z,4.00
2023-04-30T09:45:51.783Z,2.90
2023-04-30T09:48:23.019Z,2.00
2023-04-30T09:50:53.081Z,3.20
2023-04-30T09:53:23.317Z,3.30
2023-04-30T09:55:51.719Z,4.70
2023-04-30T09:58:21.419Z,2.90
2023-04-30T10:00:49.005Z,4.50
2023-04-30T10:03:16.841Z,4.50
2023-04-30T10:05:48.840Z,3.60
2023-04-30T10:08:45.121Z,3.60
2023-04-30T10:11:17.796Z,3.20
2023-04-30T10:13:59.369Z,2.90
2023-04-30T10:16:37.522Z,3.10
2023-04-30T10:19:10.493Z,2.60
2023-04-30T10:21:38.839Z,1.90
2023-04-30T10:24:06.068Z,4.30
2023-04-30T10:26:33.328Z,2.00
2023-04-30T10:29:00.875Z,3.30
2023-04-30T10:31:28.542Z,2.40
2023-04-30T10:34:26.405Z,3.00
2023-04-30T10:37:00.338Z,3.90
2023-04-30T10:39:44.534Z,2.80
2023-04-30T10:42:11.488Z,4.90
2023-04-30T10:44:38.418Z,3.40
2023-04-30T10:47:07.097Z,2.50
2023-04-30T10:49:39.407Z,2.70
2023-04-30T10:52:06.413Z,4.30
2023-04-30T10:54:35.620Z,2.90
2023-04-30T10:57:19.999Z,2.70
2023-04-30T11:00:21.346Z,2.50
2023-04-30T11:02:49.502Z,3.20
2023-04-30T11:05:18.109Z,2.20
2023-04-30T11:07:50.743Z,3.60
2023-04-30T11:10:27.188Z,2.20
2023-04-30T11:12:54.817Z,1.90
2023-04-30T11:15:26.328Z,2.40
2023-04-30T11:18:01.133Z,3.20
2023-04-30T11:20:43.739Z,3.70
2023-04-30T11:23:19.652Z,2.40
2023-04-30T11:26:08.879Z,2.20
2023-04-30T11:28:38.605Z,4.60
2023-04-30T11:31:06.038Z,4.80
2023-04-30T11:33:38.032Z,2.90
2023-04-30T11:36:07.396Z,3.00
2023-04-30T11:38:42.018Z,2.90
2023-04-30T11:41:12.726Z,4.10
2023-04-30T11:43:42.830Z,4.40
2023-04-30T11:46:11.074Z,2.50
2023-04-30T11:48:41.971Z,5.50
2023-04-30T11:51:20.415Z,4.80
2023-04-30T11:53:55.203Z,4.20
2023-04-30T11:56:23.716Z,2.30
2023-04-30T11:58:56.241Z,2.40
2023-04-30T12:01:26.969Z,3.20
2023-04-30T12:04:10.014Z,2.90
2023-04-30T12:06:59.394Z,3.80
2023-04-30T12:09:35.273Z,2.90
2023-04-30T12:13:07.288Z,2.00
2023-04-30T12:15:36.882Z,3.10
2023-04-30T12:18:34.315Z,2.10
2023-04-30T12:21:36.838Z,4.90
2023-04-30T12:27:45.895Z,2.10
2023-04-30T12:31:32.864Z,3.50
2023-04-30T12:34:18.419Z,2.20
2023-04-30T12:36:51.718Z,3.00
2023-04-30T12:39:58.141Z,3.60
2023-04-30T12:42:50.690Z,3.60
2023-04-30T12:45:52.135Z,3.20
2023-04-30T12:48:21.529Z,3.30
2023-04-30T12:54:04.713Z,4.40
2023-04-30T12:56:35.093Z,2.80
2023-04-30T12:59:03.206Z,2.60
2023-04-30T13:01:33.273Z,4.70
2023-04-30T13:04:05.734Z,4.80
2023-04-30T13:06:47.312Z,2.70
2023-04-30T13:09:18.256Z,3.00
2023-04-30T13:11:55.745Z,4.30
2023-04-30T13:14:37.568Z,2.50
2023-04-30T13:17:07.964Z,2.60
2023-04-30T13:19:39.539Z,4.30
2023-04-30T13:23:06.218Z,3.70
2023-04-30T13:29:07.657Z,3.70
2023-04-30T13:31:43.125Z,2.60
2023-04-30T13:34:21.067Z,3.50
2023-04-30T13:36:48.149Z,2.70
2023-04-30T13:39:16.150Z,3.80
2023-04-30T13:41:43.451Z,2.90
2023-04-30T13:44:16.651Z,4.00
2023-04-30T13:50:29.508Z,3.60
2023-04-30T13:52:58.825Z,2.60
2023-04-30T13:55:26.838Z,3.50
2023-04-30T13:57:55.130Z,4.90
2023-04-30T14:00:27.443Z,2.10
2023-04-30T14:05:38.992Z,2.30
2023-04-30T14:08:38.380Z,3.30
2023-04-30T14:11:11.809Z,2.40
2023-04-30T14:13:43.240Z,3.60
2023-04-30T14:25:03.899Z,2.70
2023-04-30T14:27:40.446Z,4.80
2023-04-30T14:37:27.728Z,3.60
2023-04-30T14:40:01.857Z,2.90
2023-04-30T14:42:35.124Z,4.70
2023-04-30T14:48:57.561Z,2.90
2023-04-30T14:51:24.511Z,4.20
2023-04-30T14:53:54.258Z,4.40
2023-04-30T14:56:23.190Z,3.30
2023-04-30T14:58:50.632Z,2.60
2023-04-30T15:01:20.585Z,3.20
2023-04-30T15:07:24.812Z,3.70
2023-04-30T15:10:46.226Z,4.80
2023-04-30T15:14:31.163Z,6.50
2023-04-30T15:17:26.082Z,3.70
2023-04-30T15:23:20.302Z,3.50
2023-04-30T15:25:48.747Z,4.40
2023-04-30T15:31:17.996Z,3.60
2023-04-30T15:33:51.898Z,3.10
2023-04-30T15:36:34.985Z,4.60
2023-04-30T15:39:44.319Z,3.30
2023-04-30T15:43:32.530Z,4.20
2023-04-30T15:46:29.806Z,4.00
2023-04-30T15:49:19.548Z,4.20
2023-04-30T15:52:04.029Z,2.50
2023-04-30T15:54:31.148Z,3.50
2023-04-30T15:56:59.488Z,4.60
2023-04-30T15:59:27.555Z,4.70
2023-04-30T16:01:57.044Z,5.50
2023-04-30T16:04:25.219Z,3.60
2023-04-30T16:06:52.981Z,4.70
2023-04-30T16:09:24.185Z,5.50
2023-04-30T16:11:53.250Z,4.10
2023-04-30T16:14:20.633Z,3.00
2023-04-30T16:16:47.693Z,4.60
2023-04-30T16:19:20.597Z,3.40
2023-04-30T16:21:48.722Z,4.20
2023-04-30T16:24:17.544Z,4.50
2023-04-30T16:33:17.897Z,3.70
2023-04-30T16:38:47.694Z,3.30
2023-04-30T16:41:21.193Z,4.80
2023-04-30T16:52:13.343Z,4.90
2023-04-30T16:54:49.500Z,5.50
2023-04-30T17:01:52.443Z,5.90
2023-04-30T17:10:57.117Z,7.50
2023-04-30T17:13:45.040Z,7.80
2023-04-30T17:20:15.298Z,9.40
2023-04-30T17:25:24.859Z,11.50
2023-04-30T17:27:54.492Z,12.00
2023-04-30T17:30:24.905Z,12.30
2023-04-30T17:33:31.444Z,12.50
2023-04-30T17:36:30.028Z,10.50
2023-04-30T17:39:29.346Z,10.90
2023-04-30T17:41:59.310Z,13.30
2023-04-30T17:44:31.257Z,9.70
2023-04-30T17:46:59.243Z,13.60
2023-04-30T17:49:33.614Z,14.70
2023-04-30T17:52:03.276Z,12.30
2023-04-30T17:54:38.192Z,11.60
2023-04-30T17:57:20.514Z,11.60
2023-04-30T17:59:47.485Z,11.70
2023-04-30T18:02:14.801Z,11.30
2023-04-30T18:05:14.804Z,10.00
2023-04-30T18:07:42.802Z,9.20
2023-04-30T18:10:13.903Z,7.60
2023-04-30T18:12:43.616Z,8.30
2023-04-30T18:15:12.827Z,9.60
2023-04-30T18:17:41.310Z,10.20
2023-04-30T18:20:12.627Z,8.80
2023-04-30T18:22:43.818Z,8.80
2023-04-30T18:25:11.734Z,9.80
2023-04-30T18:27:41.639Z,9.20
2023-04-30T18:30:09.673Z,10.40
2023-04-30T18:32:38.204Z,8.50
2023-04-30T18:35:10.099Z,9.80
2023-04-30T18:37:43.155Z,10.80
2023-04-30T18:40:13.155Z,12.10
2023-04-30T18:42:40.292Z,13.30
2023-04-30T18:45:12.123Z,9.70
2023-04-30T18:47:41.177Z,10.00
2023-04-30T18:50:13.289Z,11.30
2023-04-30T18:52:42.722Z,9.70
2023-04-30T18:55:14.298Z,8.50
2023-04-30T18:57:46.466Z,10.10
2023-04-30T19:00:14.521Z,8.40
2023-04-30T19:02:48.730Z,7.80
2023-04-30T19:05:34.545Z,9.20
2023-04-30T19:08:01.677Z,10.30
2023-04-30T19:10:29.662Z,8.40
2023-04-30T19:12:56.982Z,8.10
2023-04-30T19:15:25.538Z,8.50
2023-04-30T19:17:52.482Z,7.50
2023-04-30T19:20:19.458Z,9.50
2023-04-30T19:22:49.725Z,10.60
2023-04-30T19:25:17.674Z,11.90
2023-04-30T19:27:44.667Z,11.10
2023-04-30T19:30:11.941Z,14.20
2023-04-30T19:32:39.012Z,15.20
2023-04-30T19:35:06.484Z,16.20
2023-04-30T19:37:36.131Z,15.70
2023-04-30T19:40:06.405Z,19.00
2023-04-30T19:42:36.524Z,20.40
2023-04-30T19:45:03.890Z,19.50
2023-04-30T19:47:31.047Z,22.00
2023-04-30T19:49:58.204Z,29.00
2023-04-30T19:52:25.361Z,27.50
2023-04-30T19:54:52.233Z,22.80
2023-04-30T19:57:19.210Z,19.40
2023-04-30T19:59:46.832Z,19.80
2023-04-30T20:02:15.860Z,32.50
2023-04-30T20:04:42.782Z,29.40
2023-04-30T20:07:09.904Z,34.80
2023-04-30T20:09:38.964Z,34.10
2023-04-30T20:12:05.885Z,31.50
2023-04-30T20:14:32.971Z,26.80
2023-04-30T20:17:00.126Z,24.90
2023-04-30T20:19:27.038Z,22.50
2023-04-30T20:21:54.303Z,20.60
2023-04-30T20:24:22.135Z,15.80
2023-04-30T20:26:49.482Z,16.90
2023-04-30T20:29:18.087Z,13.80
2023-04-30T20:31:45.013Z,16.10
2023-04-30T20:34:12.301Z,18.30
2023-04-30T20:36:39.439Z,13.60
2023-04-30T20:39:08.369Z,14.40
2023-04-30T20:41:35.659Z,12.10
2023-04-30T20:44:02.546Z,14.60
2023-04-30T20:46:31.628Z,15.40
2023-04-30T20:49:03.556Z,18.00
2023-04-30T20:51:31.424Z,19.30
2023-04-30T20:53:58.580Z,18.20
2023-04-30T20:56:26.659Z,20.70
2023-04-30T20:58:54.103Z,23.30
2023-04-30T21:01:21.103Z,20.40
2023-04-30T21:03:48.723Z,25.40
2023-04-30T21:06:16.986Z,20.30
2023-04-30T21:08:44.074Z,22.50
2023-04-30T21:11:13.225Z,31.30
2023-04-30T21:13:41.916Z,30.80
2023-04-30T21:16:08.829Z,32.80
2023-04-30T21:18:36.124Z,44.80
2023-04-30T21:21:04.353Z,41.30
2023-04-30T21:23:32.108Z,39.20
2023-04-30T21:25:58.975Z,34.20
2023-04-30T21:28:26.680Z,34.80
2023-04-30T21:30:54.571Z,37.30
2023-04-30T21:33:21.452Z,50.00
2023-04-30T21:35:48.523Z,48.00
2023-04-30T21:38:15.865Z,47.40
2023-04-30T21:40:42.639Z,42.20
2023-04-30T21:43:09.473Z,42.90
2023-04-30T21:45:36.383Z,48.00
2023-04-30T21:48:03.825Z,48.30
2023-04-30T21:50:34.523Z,51.80
2023-04-30T21:53:02.899Z,52.20
2023-04-30T21:55:30.757Z,49.90
2023-04-30T21:57:58.421Z,47.70
2023-04-30T22:00:26.984Z,49.50
2023-04-30T22:02:54.188Z,46.60
2023-04-30T22:05:21.390Z,56.80
2023-04-30T22:07:48.500Z,53.90
2023-04-30T22:10:15.494Z,51.70
2023-04-30T22:12:43.904Z,47.10
2023-04-30T22:15:13.554Z,53.70
2023-04-30T22:20:09.584Z,46.90
2023-04-30T22:22:36.456Z,54.00
2023-04-30T22:25:04.077Z,50.40
2023-04-30T22:27:31.605Z,49.90
2023-04-30T22:29:58.907Z,49.30
2023-04-30T22:32:26.099Z,51.60
2023-04-30T22:34:53.073Z,48.60
2023-04-30T22:37:20.048Z,53.50
2023-04-30T22:39:48.191Z,52.40
2023-04-30T22:42:15.246Z,53.60
2023-04-30T22:44:42.420Z,49.90
2023-04-30T22:47:09.504Z,47.90
2023-04-30T22:49:38.366Z,48.90
2023-04-30T22:52:09.680Z,49.00
2023-04-30T22:54:36.570Z,49.90
2023-04-30T22:57:03.566Z,50.40
2023-04-30T22:59:39.429Z,47.90
2023-04-30T23:02:06.331Z,46.80
2023-04-30T23:04:36.574Z,47.90
2023-04-30T23:07:05.135Z,48.60
2023-04-30T23:09:33.481Z,47.60
2023-04-30T23:12:01.640Z,49.80
2023-04-30T23:14:29.334Z,40.60
2023-04-30T23:16:56.566Z,28.80
2023-04-30T23:19:24.137Z,26.50
2023-04-30T23:21:51.723Z,26.90
2023-04-30T23:24:19.202Z,20.90
2023-04-30T23:26:47.372Z,21.80
2023-04-30T23:29:14.713Z,22.10
2023-04-30T23:31:41.767Z,20.00
2023-04-30T23:34:08.702Z,30.00
2023-04-30T23:36:35.755Z,32.00
2023-04-30T23:39:04.150Z,33.40
2023-04-30T23:41:32.614Z,30.50
2023-04-30T23:43:59.489Z,30.40
2023-04-30T23:46:26.655Z,34.30
2023-04-30T23:48:53.673Z,30.10
2023-04-30T23:51:22.081Z,34.40
2023-04-30T23:53:50.421Z,29.20
2023-04-30T23:56:17.638Z,32.70
2023-04-30T23:58:45.004Z,32.20
